sensor_id;sensor_type;location;lat;lon;timestamp;P1;durP1;ratioP1;P2;durP2;ratioP2
35444;SDS011;21562;49.476;6.086;2023-04-21T00:01:22;17.60;;;11.07;;
35444;SDS011;21562;49.476;6.086;2023-04-21T00:03:48;16.85;;;11.00;;
35444;SDS011;21562;49.476;6.086;2023-04-21T00:06:14;19.55;;;12.10;;
35444;SDS011;21562;49.476;6.086;2023-04-21T00:08:46;19.55;;;11.10;;
35444;SDS011;21562;49.476;6.086;2023-04-21T00:11:12;18.60;;;11.80;;
35444;SDS011;21562;49.476;6.086;2023-04-21T00:13:39;21.83;;;11.77;;
35444;SDS011;21562;49.476;6.086;2023-04-21T00:16:04;19.55;;;11.73;;
35444;SDS011;21562;49.476;6.086;2023-04-21T00:18:31;17.85;;;11.70;;
35444;SDS011;21562;49.476;6.086;2023-04-21T00:20:56;18.60;;;12.05;;
35444;SDS011;21562;49.476;6.086;2023-04-21T00:23:22;19.45;;;12.90;;
35444;SDS011;21562;49.476;6.086;2023-04-21T00:25:47;17.98;;;12.00;;
35444;SDS011;21562;49.476;6.086;2023-04-21T00:28:13;16.95;;;12.02;;
35444;SDS011;21562;49.476;6.086;2023-04-21T00:30:39;20.30;;;12.60;;
35444;SDS011;21562;49.476;6.086;2023-04-21T00:33:04;20.73;;;13.20;;
35444;SDS011;21562;49.476;6.086;2023-04-21T00:35:30;18.05;;;12.48;;
35444;SDS011;21562;49.476;6.086;2023-04-21T00:37:55;21.27;;;13.07;;
35444;SDS011;21562;49.476;6.086;2023-04-21T00:40:21;22.55;;;12.82;;
35444;SDS011;21562;49.476;6.086;2023-04-21T00:42:47;19.77;;;12.48;;
35444;SDS011;21562;49.476;6.086;2023-04-21T00:45:12;20.33;;;13.35;;
35444;SDS011;21562;49.476;6.086;2023-04-21T00:47:41;19.40;;;12.52;;
35444;SDS011;21562;49.476;6.086;2023-04-21T00:50:07;24.92;;;12.98;;
35444;SDS011;21562;49.476;6.086;2023-04-21T00:52:33;21.00;;;13.32;;
35444;SDS011;21562;49.476;6.086;2023-04-21T00:54:59;24.10;;;14.30;;
35444;SDS011;21562;49.476;6.086;2023-04-21T00:57:26;26.67;;;14.50;;
35444;SDS011;21562;49.476;6.086;2023-04-21T00:59:52;22.35;;;14.05;;
35444;SDS011;21562;49.476;6.086;2023-04-21T01:02:18;22.05;;;14.60;;
35444;SDS011;21562;49.476;6.086;2023-04-21T01:04:45;21.35;;;14.13;;
35444;SDS011;21562;49.476;6.086;2023-04-21T01:07:11;24.73;;;15.15;;
35444;SDS011;21562;49.476;6.086;2023-04-21T01:09:37;23.92;;;15.02;;
35444;SDS011;21562;49.476;6.086;2023-04-21T01:12:03;26.70;;;15.38;;
35444;SDS011;21562;49.476;6.086;2023-04-21T01:14:30;23.20;;;13.82;;
35444;SDS011;21562;49.476;6.086;2023-04-21T01:16:56;23.13;;;15.05;;
35444;SDS011;21562;49.476;6.086;2023-04-21T01:19:23;22.73;;;14.63;;
35444;SDS011;21562;49.476;6.086;2023-04-21T01:21:50;22.90;;;15.18;;
35444;SDS011;21562;49.476;6.086;2023-04-21T01:24:21;22.52;;;15.00;;
35444;SDS011;21562;49.476;6.086;2023-04-21T01:26:48;25.25;;;16.30;;
35444;SDS011;21562;49.476;6.086;2023-04-21T01:29:14;25.55;;;15.75;;
35444;SDS011;21562;49.476;6.086;2023-04-21T01:31:40;26.40;;;15.23;;
35444;SDS011;21562;49.476;6.086;2023-04-21T01:34:06;25.98;;;16.50;;
35444;SDS011;21562;49.476;6.086;2023-04-21T01:36:32;27.40;;;16.63;;
35444;SDS011;21562;49.476;6.086;2023-04-21T01:38:59;31.02;;;16.98;;
35444;SDS011;21562;49.476;6.086;2023-04-21T01:41:25;27.30;;;16.38;;
35444;SDS011;21562;49.476;6.086;2023-04-21T01:43:51;27.23;;;17.20;;
35444;SDS011;21562;49.476;6.086;2023-04-21T01:46:18;27.80;;;17.13;;
35444;SDS011;21562;49.476;6.086;2023-04-21T01:48:44;26.30;;;15.98;;
35444;SDS011;21562;49.476;6.086;2023-04-21T01:51:10;26.17;;;15.70;;
35444;SDS011;21562;49.476;6.086;2023-04-21T01:53:36;26.40;;;15.73;;
35444;SDS011;21562;49.476;6.086;2023-04-21T01:56:01;27.33;;;17.00;;
35444;SDS011;21562;49.476;6.086;2023-04-21T01:58:27;25.13;;;15.57;;
35444;SDS011;21562;49.476;6.086;2023-04-21T02:00:53;28.15;;;16.33;;
35444;SDS011;21562;49.476;6.086;2023-04-21T02:03:18;22.33;;;14.63;;
35444;SDS011;21562;49.476;6.086;2023-04-21T02:05:44;25.20;;;14.98;;
35444;SDS011;21562;49.476;6.086;2023-04-21T02:08:09;24.88;;;15.82;;
35444;SDS011;21562;49.476;6.086;2023-04-21T02:10:35;25.05;;;15.05;;
35444;SDS011;21562;49.476;6.086;2023-04-21T02:13:01;27.75;;;16.33;;
35444;SDS011;21562;49.476;6.086;2023-04-21T02:15:26;26.92;;;16.05;;
35444;SDS011;21562;49.476;6.086;2023-04-21T02:17:52;24.75;;;15.80;;
35444;SDS011;21562;49.476;6.086;2023-04-21T02:20:17;26.27;;;16.30;;
35444;SDS011;21562;49.476;6.086;2023-04-21T02:22:43;27.88;;;16.38;;
35444;SDS011;21562;49.476;6.086;2023-04-21T02:25:09;26.65;;;16.40;;
35444;SDS011;21562;49.476;6.086;2023-04-21T02:27:34;27.05;;;15.90;;
35444;SDS011;21562;49.476;6.086;2023-04-21T02:30:00;25.95;;;15.63;;
35444;SDS011;21562;49.476;6.086;2023-04-21T02:32:26;31.00;;;17.70;;
35444;SDS011;21562;49.476;6.086;2023-04-21T02:34:52;30.65;;;17.85;;
35444;SDS011;21562;49.476;6.086;2023-04-21T02:37:18;27.98;;;16.65;;
35444;SDS011;21562;49.476;6.086;2023-04-21T02:39:44;29.08;;;17.55;;
35444;SDS011;21562;49.476;6.086;2023-04-21T02:42:09;28.95;;;17.73;;
35444;SDS011;21562;49.476;6.086;2023-04-21T02:44:38;27.17;;;16.30;;
35444;SDS011;21562;49.476;6.086;2023-04-21T02:47:03;29.92;;;17.88;;
35444;SDS011;21562;49.476;6.086;2023-04-21T02:49:29;31.92;;;17.85;;
35444;SDS011;21562;49.476;6.086;2023-04-21T02:51:56;29.27;;;17.63;;
35444;SDS011;21562;49.476;6.086;2023-04-21T02:54:22;26.90;;;16.73;;
35444;SDS011;21562;49.476;6.086;2023-04-21T02:56:47;31.83;;;17.85;;
35444;SDS011;21562;49.476;6.086;2023-04-21T02:59:13;30.00;;;17.85;;
35444;SDS011;21562;49.476;6.086;2023-04-21T03:01:40;33.80;;;19.23;;
35444;SDS011;21562;49.476;6.086;2023-04-21T03:04:06;31.17;;;18.05;;
35444;SDS011;21562;49.476;6.086;2023-04-21T03:06:32;33.42;;;19.83;;
35444;SDS011;21562;49.476;6.086;2023-04-21T03:08:57;32.55;;;19.15;;
35444;SDS011;21562;49.476;6.086;2023-04-21T03:11:23;35.35;;;19.52;;
35444;SDS011;21562;49.476;6.086;2023-04-21T03:13:49;31.88;;;18.23;;
35444;SDS011;21562;49.476;6.086;2023-04-21T03:16:14;33.00;;;19.25;;
35444;SDS011;21562;49.476;6.086;2023-04-21T03:18:40;39.15;;;20.67;;
35444;SDS011;21562;49.476;6.086;2023-04-21T03:21:06;36.00;;;20.33;;
35444;SDS011;21562;49.476;6.086;2023-04-21T03:23:32;38.33;;;20.88;;
35444;SDS011;21562;49.476;6.086;2023-04-21T03:25:57;32.88;;;19.55;;
35444;SDS011;21562;49.476;6.086;2023-04-21T03:28:23;35.15;;;19.50;;
35444;SDS011;21562;49.476;6.086;2023-04-21T03:30:48;35.35;;;19.27;;
35444;SDS011;21562;49.476;6.086;2023-04-21T03:33:14;40.20;;;20.50;;
35444;SDS011;21562;49.476;6.086;2023-04-21T03:35:40;33.35;;;19.73;;
35444;SDS011;21562;49.476;6.086;2023-04-21T03:38:05;36.97;;;19.48;;
35444;SDS011;21562;49.476;6.086;2023-04-21T03:40:31;34.25;;;19.50;;
35444;SDS011;21562;49.476;6.086;2023-04-21T03:42:57;33.33;;;19.52;;
35444;SDS011;21562;49.476;6.086;2023-04-21T03:45:22;35.80;;;19.02;;
35444;SDS011;21562;49.476;6.086;2023-04-21T03:47:51;33.35;;;18.80;;
35444;SDS011;21562;49.476;6.086;2023-04-21T03:50:18;33.20;;;19.35;;
35444;SDS011;21562;49.476;6.086;2023-04-21T03:52:44;37.38;;;20.13;;
35444;SDS011;21562;49.476;6.086;2023-04-21T03:55:10;33.95;;;20.13;;
35444;SDS011;21562;49.476;6.086;2023-04-21T03:57:39;35.85;;;18.10;;
35444;SDS011;21562;49.476;6.086;2023-04-21T04:00:06;31.35;;;18.38;;
35444;SDS011;21562;49.476;6.086;2023-04-21T04:02:34;33.92;;;19.75;;
35444;SDS011;21562;49.476;6.086;2023-04-21T04:05:00;32.35;;;18.38;;
35444;SDS011;21562;49.476;6.086;2023-04-21T04:07:27;31.88;;;17.77;;
35444;SDS011;21562;49.476;6.086;2023-04-21T04:09:53;32.03;;;18.23;;
35444;SDS011;21562;49.476;6.086;2023-04-21T04:12:18;30.73;;;18.55;;
35444;SDS011;21562;49.476;6.086;2023-04-21T04:14:44;31.27;;;18.20;;
35444;SDS011;21562;49.476;6.086;2023-04-21T04:17:10;31.33;;;19.05;;
35444;SDS011;21562;49.476;6.086;2023-04-21T04:19:36;31.17;;;17.83;;
35444;SDS011;21562;49.476;6.086;2023-04-21T04:22:01;31.45;;;18.38;;
35444;SDS011;21562;49.476;6.086;2023-04-21T04:24:27;33.05;;;19.10;;
35444;SDS011;21562;49.476;6.086;2023-04-21T04:26:53;29.83;;;17.05;;
35444;SDS011;21562;49.476;6.086;2023-04-21T04:29:19;32.72;;;18.08;;
35444;SDS011;21562;49.476;6.086;2023-04-21T04:31:46;36.17;;;19.30;;
35444;SDS011;21562;49.476;6.086;2023-04-21T04:34:13;29.92;;;17.98;;
35444;SDS011;21562;49.476;6.086;2023-04-21T04:36:39;32.10;;;18.50;;
35444;SDS011;21562;49.476;6.086;2023-04-21T04:39:06;32.55;;;18.67;;
35444;SDS011;21562;49.476;6.086;2023-04-21T04:41:34;32.72;;;17.70;;
35444;SDS011;21562;49.476;6.086;2023-04-21T04:44:00;32.47;;;18.92;;
35444;SDS011;21562;49.476;6.086;2023-04-21T04:46:28;33.55;;;19.23;;
35444;SDS011;21562;49.476;6.086;2023-04-21T04:48:54;33.15;;;18.90;;
35444;SDS011;21562;49.476;6.086;2023-04-21T04:51:19;32.35;;;18.30;;
35444;SDS011;21562;49.476;6.086;2023-04-21T04:53:45;32.63;;;18.92;;
35444;SDS011;21562;49.476;6.086;2023-04-21T04:56:10;32.00;;;18.50;;
35444;SDS011;21562;49.476;6.086;2023-04-21T04:58:36;30.85;;;17.10;;
35444;SDS011;21562;49.476;6.086;2023-04-21T05:01:14;33.85;;;18.98;;
35444;SDS011;21562;49.476;6.086;2023-04-21T05:03:41;33.45;;;17.90;;
35444;SDS011;21562;49.476;6.086;2023-04-21T05:06:07;35.28;;;18.33;;
35444;SDS011;21562;49.476;6.086;2023-04-21T05:08:34;31.25;;;18.27;;
35444;SDS011;21562;49.476;6.086;2023-04-21T05:11:00;32.75;;;18.13;;
35444;SDS011;21562;49.476;6.086;2023-04-21T05:13:26;35.13;;;17.92;;
35444;SDS011;21562;49.476;6.086;2023-04-21T05:15:58;30.55;;;18.77;;
35444;SDS011;21562;49.476;6.086;2023-04-21T05:18:27;32.15;;;18.40;;
35444;SDS011;21562;49.476;6.086;2023-04-21T05:20:53;35.10;;;19.23;;
35444;SDS011;21562;49.476;6.086;2023-04-21T05:23:19;35.30;;;18.65;;
35444;SDS011;21562;49.476;6.086;2023-04-21T05:25:45;27.98;;;16.65;;
35444;SDS011;21562;49.476;6.086;2023-04-21T05:28:11;30.73;;;17.48;;
35444;SDS011;21562;49.476;6.086;2023-04-21T05:30:36;32.20;;;17.73;;
35444;SDS011;21562;49.476;6.086;2023-04-21T05:33:02;31.27;;;17.45;;
35444;SDS011;21562;49.476;6.086;2023-04-21T05:35:31;29.52;;;16.85;;
35444;SDS011;21562;49.476;6.086;2023-04-21T05:37:57;31.60;;;16.63;;
35444;SDS011;21562;49.476;6.086;2023-04-21T05:40:23;29.50;;;17.15;;
35444;SDS011;21562;49.476;6.086;2023-04-21T05:42:48;27.50;;;16.35;;
35444;SDS011;21562;49.476;6.086;2023-04-21T05:45:14;25.65;;;15.98;;
35444;SDS011;21562;49.476;6.086;2023-04-21T05:47:40;31.30;;;16.88;;
35444;SDS011;21562;49.476;6.086;2023-04-21T05:50:06;27.42;;;16.23;;
35444;SDS011;21562;49.476;6.086;2023-04-21T05:52:32;27.55;;;15.73;;
35444;SDS011;21562;49.476;6.086;2023-04-21T05:54:59;28.67;;;16.42;;
35444;SDS011;21562;49.476;6.086;2023-04-21T05:57:25;28.23;;;16.95;;
35444;SDS011;21562;49.476;6.086;2023-04-21T05:59:50;28.20;;;16.33;;
35444;SDS011;21562;49.476;6.086;2023-04-21T06:02:16;26.65;;;16.83;;
35444;SDS011;21562;49.476;6.086;2023-04-21T06:04:41;29.88;;;16.08;;
35444;SDS011;21562;49.476;6.086;2023-04-21T06:07:07;28.65;;;15.50;;
35444;SDS011;21562;49.476;6.086;2023-04-21T06:09:34;25.58;;;14.93;;
35444;SDS011;21562;49.476;6.086;2023-04-21T06:12:03;26.60;;;15.75;;
35444;SDS011;21562;49.476;6.086;2023-04-21T06:14:29;24.65;;;15.38;;
35444;SDS011;21562;49.476;6.086;2023-04-21T06:16:55;27.27;;;14.75;;
35444;SDS011;21562;49.476;6.086;2023-04-21T06:19:20;24.92;;;14.27;;
35444;SDS011;21562;49.476;6.086;2023-04-21T06:21:46;24.15;;;13.82;;
35444;SDS011;21562;49.476;6.086;2023-04-21T06:24:11;24.20;;;13.30;;
35444;SDS011;21562;49.476;6.086;2023-04-21T06:26:37;24.45;;;13.85;;
35444;SDS011;21562;49.476;6.086;2023-04-21T06:29:03;22.88;;;12.82;;
35444;SDS011;21562;49.476;6.086;2023-04-21T06:31:28;23.30;;;13.35;;
35444;SDS011;21562;49.476;6.086;2023-04-21T06:33:54;23.73;;;13.07;;
35444;SDS011;21562;49.476;6.086;2023-04-21T06:36:20;29.27;;;15.75;;
35444;SDS011;21562;49.476;6.086;2023-04-21T06:38:47;22.60;;;12.98;;
35444;SDS011;21562;49.476;6.086;2023-04-21T06:41:13;20.08;;;12.43;;
35444;SDS011;21562;49.476;6.086;2023-04-21T06:43:38;22.77;;;12.18;;
35444;SDS011;21562;49.476;6.086;2023-04-21T06:46:04;20.42;;;12.65;;
35444;SDS011;21562;49.476;6.086;2023-04-21T06:48:30;21.45;;;12.63;;
35444;SDS011;21562;49.476;6.086;2023-04-21T06:50:56;20.83;;;12.82;;
35444;SDS011;21562;49.476;6.086;2023-04-21T06:53:21;23.98;;;14.05;;
35444;SDS011;21562;49.476;6.086;2023-04-21T06:55:47;22.33;;;13.13;;
35444;SDS011;21562;49.476;6.086;2023-04-21T06:58:13;20.27;;;12.32;;
35444;SDS011;21562;49.476;6.086;2023-04-21T07:00:38;22.15;;;12.70;;
35444;SDS011;21562;49.476;6.086;2023-04-21T07:03:04;21.35;;;13.43;;
35444;SDS011;21562;49.476;6.086;2023-04-21T07:05:30;20.58;;;12.65;;
35444;SDS011;21562;49.476;6.086;2023-04-21T07:07:56;22.63;;;13.00;;
35444;SDS011;21562;49.476;6.086;2023-04-21T07:10:26;29.58;;;12.93;;
35444;SDS011;21562;49.476;6.086;2023-04-21T07:12:53;21.60;;;12.70;;
35444;SDS011;21562;49.476;6.086;2023-04-21T07:15:19;20.63;;;11.80;;
35444;SDS011;21562;49.476;6.086;2023-04-21T07:17:45;20.98;;;12.77;;
35444;SDS011;21562;49.476;6.086;2023-04-21T07:20:11;21.50;;;12.90;;
35444;SDS011;21562;49.476;6.086;2023-04-21T07:22:37;19.40;;;12.25;;
35444;SDS011;21562;49.476;6.086;2023-04-21T07:25:03;17.38;;;11.63;;
35444;SDS011;21562;49.476;6.086;2023-04-21T07:27:32;20.40;;;12.63;;
35444;SDS011;21562;49.476;6.086;2023-04-21T07:29:58;19.83;;;12.32;;
35444;SDS011;21562;49.476;6.086;2023-04-21T07:32:25;19.85;;;9.73;;
35444;SDS011;21562;49.476;6.086;2023-04-21T07:34:51;21.63;;;13.25;;
35444;SDS011;21562;49.476;6.086;2023-04-21T07:37:16;17.52;;;10.20;;
35444;SDS011;21562;49.476;6.086;2023-04-21T07:39:42;18.27;;;10.35;;
35444;SDS011;21562;49.476;6.086;2023-04-21T07:42:08;16.38;;;10.88;;
35444;SDS011;21562;49.476;6.086;2023-04-21T07:44:35;19.00;;;10.60;;
35444;SDS011;21562;49.476;6.086;2023-04-21T07:47:00;18.27;;;10.43;;
35444;SDS011;21562;49.476;6.086;2023-04-21T07:49:26;19.65;;;10.23;;
35444;SDS011;21562;49.476;6.086;2023-04-21T07:51:52;17.00;;;10.60;;
35444;SDS011;21562;49.476;6.086;2023-04-21T07:54:17;17.52;;;10.80;;
35444;SDS011;21562;49.476;6.086;2023-04-21T07:56:43;19.15;;;10.85;;
35444;SDS011;21562;49.476;6.086;2023-04-21T07:59:09;17.17;;;10.18;;
35444;SDS011;21562;49.476;6.086;2023-04-21T08:01:34;17.45;;;9.63;;
35444;SDS011;21562;49.476;6.086;2023-04-21T08:04:00;17.42;;;9.30;;
35444;SDS011;21562;49.476;6.086;2023-04-21T08:06:26;16.98;;;8.68;;
35444;SDS011;21562;49.476;6.086;2023-04-21T08:08:52;15.63;;;9.50;;
35444;SDS011;21562;49.476;6.086;2023-04-21T08:11:19;16.83;;;9.70;;
35444;SDS011;21562;49.476;6.086;2023-04-21T08:13:46;16.67;;;9.98;;
35444;SDS011;21562;49.476;6.086;2023-04-21T08:16:12;13.40;;;8.90;;
35444;SDS011;21562;49.476;6.086;2023-04-21T08:18:38;16.65;;;9.50;;
35444;SDS011;21562;49.476;6.086;2023-04-21T08:21:03;14.55;;;9.10;;
35444;SDS011;21562;49.476;6.086;2023-04-21T08:23:29;14.98;;;8.95;;
35444;SDS011;21562;49.476;6.086;2023-04-21T08:25:55;12.45;;;8.43;;
35444;SDS011;21562;49.476;6.086;2023-04-21T08:28:20;13.00;;;8.45;;
35444;SDS011;21562;49.476;6.086;2023-04-21T08:30:46;11.98;;;8.30;;
35444;SDS011;21562;49.476;6.086;2023-04-21T08:33:12;13.48;;;8.65;;
35444;SDS011;21562;49.476;6.086;2023-04-21T08:35:38;14.18;;;8.45;;
35444;SDS011;21562;49.476;6.086;2023-04-21T08:38:05;15.48;;;8.38;;
35444;SDS011;21562;49.476;6.086;2023-04-21T08:40:31;15.20;;;8.60;;
35444;SDS011;21562;49.476;6.086;2023-04-21T08:42:58;12.85;;;8.63;;
35444;SDS011;21562;49.476;6.086;2023-04-21T08:45:24;13.55;;;7.88;;
35444;SDS011;21562;49.476;6.086;2023-04-21T08:47:51;13.48;;;8.45;;
35444;SDS011;21562;49.476;6.086;2023-04-21T08:50:19;13.73;;;7.82;;
35444;SDS011;21562;49.476;6.086;2023-04-21T08:52:50;10.30;;;7.18;;
35444;SDS011;21562;49.476;6.086;2023-04-21T08:55:15;12.02;;;6.80;;
35444;SDS011;21562;49.476;6.086;2023-04-21T08:57:41;11.23;;;7.32;;
35444;SDS011;21562;49.476;6.086;2023-04-21T09:00:07;12.23;;;7.05;;
35444;SDS011;21562;49.476;6.086;2023-04-21T09:02:34;10.95;;;7.05;;
35444;SDS011;21562;49.476;6.086;2023-04-21T09:05:24;11.40;;;7.03;;
35444;SDS011;21562;49.476;6.086;2023-04-21T09:08:13;9.05;;;6.60;;
35444;SDS011;21562;49.476;6.086;2023-04-21T09:10:46;10.18;;;6.80;;
35444;SDS011;21562;49.476;6.086;2023-04-21T09:13:13;10.68;;;6.18;;
35444;SDS011;21562;49.476;6.086;2023-04-21T09:15:41;13.55;;;7.60;;
35444;SDS011;21562;49.476;6.086;2023-04-21T09:20:41;13.73;;;7.45;;
35444;SDS011;21562;49.476;6.086;2023-04-21T09:23:08;9.40;;;6.60;;
35444;SDS011;21562;49.476;6.086;2023-04-21T09:25:37;10.68;;;6.50;;
35444;SDS011;21562;49.476;6.086;2023-04-21T09:28:07;10.77;;;6.35;;
35444;SDS011;21562;49.476;6.086;2023-04-21T09:30:34;9.57;;;5.85;;
35444;SDS011;21562;49.476;6.086;2023-04-21T09:33:05;9.57;;;5.72;;
35444;SDS011;21562;49.476;6.086;2023-04-21T09:35:32;11.80;;;6.47;;
35444;SDS011;21562;49.476;6.086;2023-04-21T09:37:59;9.20;;;6.65;;
35444;SDS011;21562;49.476;6.086;2023-04-21T09:40:26;7.32;;;5.45;;
35444;SDS011;21562;49.476;6.086;2023-04-21T09:42:55;9.00;;;6.28;;
35444;SDS011;21562;49.476;6.086;2023-04-21T09:45:25;7.80;;;5.43;;
35444;SDS011;21562;49.476;6.086;2023-04-21T09:47:54;10.00;;;5.35;;
35444;SDS011;21562;49.476;6.086;2023-04-21T09:50:25;8.75;;;5.63;;
35444;SDS011;21562;49.476;6.086;2023-04-21T09:52:52;11.68;;;6.43;;
35444;SDS011;21562;49.476;6.086;2023-04-21T09:55:21;9.75;;;6.70;;
35444;SDS011;21562;49.476;6.086;2023-04-21T09:57:49;10.55;;;7.10;;
35444;SDS011;21562;49.476;6.086;2023-04-21T10:00:16;10.55;;;6.47;;
35444;SDS011;21562;49.476;6.086;2023-04-21T10:02:51;11.02;;;7.22;;
35444;SDS011;21562;49.476;6.086;2023-04-21T10:05:18;13.80;;;7.63;;
35444;SDS011;21562;49.476;6.086;2023-04-21T10:07:44;9.25;;;6.07;;
35444;SDS011;21562;49.476;6.086;2023-04-21T10:10:12;10.90;;;6.85;;
35444;SDS011;21562;49.476;6.086;2023-04-21T10:12:48;9.48;;;6.80;;
35444;SDS011;21562;49.476;6.086;2023-04-21T10:15:31;9.55;;;6.63;;
35444;SDS011;21562;49.476;6.086;2023-04-21T10:21:21;8.48;;;5.90;;
35444;SDS011;21562;49.476;6.086;2023-04-21T10:23:28;11.00;;;6.55;;
35444;SDS011;21562;49.476;6.086;2023-04-21T10:26:02;9.27;;;6.47;;
35444;SDS011;21562;49.476;6.086;2023-04-21T10:28:37;8.57;;;5.68;;
35444;SDS011;21562;49.476;6.086;2023-04-21T10:34:20;9.50;;;6.30;;
35444;SDS011;21562;49.476;6.086;2023-04-21T10:42:17;13.05;;;7.13;;
35444;SDS011;21562;49.476;6.086;2023-04-21T10:47:29;8.88;;;6.13;;
35444;SDS011;21562;49.476;6.086;2023-04-21T10:50:10;10.15;;;6.32;;
35444;SDS011;21562;49.476;6.086;2023-04-21T10:52:37;11.10;;;6.45;;
35444;SDS011;21562;49.476;6.086;2023-04-21T10:55:07;9.85;;;6.43;;
35444;SDS011;21562;49.476;6.086;2023-04-21T10:57:36;9.43;;;5.67;;
35444;SDS011;21562;49.476;6.086;2023-04-21T11:00:02;10.32;;;5.53;;
35444;SDS011;21562;49.476;6.086;2023-04-21T11:02:34;9.23;;;6.18;;
35444;SDS011;21562;49.476;6.086;2023-04-21T11:05:00;8.95;;;5.85;;
35444;SDS011;21562;49.476;6.086;2023-04-21T11:07:27;8.10;;;5.63;;
35444;SDS011;21562;49.476;6.086;2023-04-21T11:09:57;9.85;;;5.10;;
35444;SDS011;21562;49.476;6.086;2023-04-21T11:12:25;10.48;;;5.65;;
35444;SDS011;21562;49.476;6.086;2023-04-21T11:14:53;7.35;;;4.90;;
35444;SDS011;21562;49.476;6.086;2023-04-21T11:17:19;8.73;;;5.28;;
35444;SDS011;21562;49.476;6.086;2023-04-21T11:19:51;8.63;;;5.53;;
35444;SDS011;21562;49.476;6.086;2023-04-21T11:22:18;8.75;;;5.60;;
35444;SDS011;21562;49.476;6.086;2023-04-21T11:24:45;8.88;;;4.95;;
35444;SDS011;21562;49.476;6.086;2023-04-21T11:27:12;8.93;;;5.25;;
35444;SDS011;21562;49.476;6.086;2023-04-21T11:29:43;9.98;;;5.20;;
35444;SDS011;21562;49.476;6.086;2023-04-21T11:32:12;9.38;;;6.07;;
35444;SDS011;21562;49.476;6.086;2023-04-21T11:34:38;8.88;;;5.60;;
35444;SDS011;21562;49.476;6.086;2023-04-21T11:37:08;6.32;;;4.47;;
35444;SDS011;21562;49.476;6.086;2023-04-21T11:39:41;10.30;;;5.95;;
35444;SDS011;21562;49.476;6.086;2023-04-21T11:42:08;6.85;;;4.55;;
35444;SDS011;21562;49.476;6.086;2023-04-21T11:44:36;9.40;;;4.72;;
35444;SDS011;21562;49.476;6.086;2023-04-21T11:47:11;8.07;;;4.97;;
35444;SDS011;21562;49.476;6.086;2023-04-21T11:52:29;8.57;;;4.90;;
35444;SDS011;21562;49.476;6.086;2023-04-21T11:54:58;9.45;;;4.50;;
35444;SDS011;21562;49.476;6.086;2023-04-21T11:57:27;6.85;;;4.18;;
35444;SDS011;21562;49.476;6.086;2023-04-21T11:59:57;7.25;;;4.65;;
35444;SDS011;21562;49.476;6.086;2023-04-21T12:02:24;7.25;;;4.63;;
35444;SDS011;21562;49.476;6.086;2023-04-21T12:07:37;5.68;;;4.18;;
35444;SDS011;21562;49.476;6.086;2023-04-21T12:10:07;5.80;;;3.70;;
35444;SDS011;21562;49.476;6.086;2023-04-21T12:12:38;4.93;;;3.92;;
35444;SDS011;21562;49.476;6.086;2023-04-21T12:15:08;13.15;;;4.43;;
35444;SDS011;21562;49.476;6.086;2023-04-21T12:17:36;7.63;;;4.40;;
35444;SDS011;21562;49.476;6.086;2023-04-21T12:20:08;6.72;;;4.18;;
35444;SDS011;21562;49.476;6.086;2023-04-21T12:22:34;6.55;;;4.05;;
35444;SDS011;21562;49.476;6.086;2023-04-21T12:25:00;7.13;;;4.05;;
35444;SDS011;21562;49.476;6.086;2023-04-21T12:27:26;5.47;;;3.60;;
35444;SDS011;21562;49.476;6.086;2023-04-21T12:29:52;5.45;;;3.50;;
35444;SDS011;21562;49.476;6.086;2023-04-21T12:32:17;7.00;;;3.95;;
35444;SDS011;21562;49.476;6.086;2023-04-21T12:34:44;5.63;;;3.72;;
35444;SDS011;21562;49.476;6.086;2023-04-21T12:37:10;5.57;;;3.38;;
35444;SDS011;21562;49.476;6.086;2023-04-21T12:39:35;6.50;;;3.55;;
35444;SDS011;21562;49.476;6.086;2023-04-21T12:42:01;5.28;;;3.22;;
35444;SDS011;21562;49.476;6.086;2023-04-21T12:44:27;3.78;;;3.00;;
35444;SDS011;21562;49.476;6.086;2023-04-21T12:46:52;3.22;;;2.35;;
35444;SDS011;21562;49.476;6.086;2023-04-21T12:49:18;4.38;;;2.13;;
35444;SDS011;21562;49.476;6.086;2023-04-21T12:51:46;2.90;;;2.13;;
35444;SDS011;21562;49.476;6.086;2023-04-21T12:54:12;3.67;;;2.35;;
35444;SDS011;21562;49.476;6.086;2023-04-21T12:56:38;3.63;;;2.20;;
35444;SDS011;21562;49.476;6.086;2023-04-21T12:59:05;3.00;;;2.13;;
35444;SDS011;21562;49.476;6.086;2023-04-21T13:01:31;4.68;;;2.47;;
35444;SDS011;21562;49.476;6.086;2023-04-21T13:03:57;4.05;;;2.03;;
35444;SDS011;21562;49.476;6.086;2023-04-21T13:06:23;4.00;;;2.53;;
35444;SDS011;21562;49.476;6.086;2023-04-21T13:08:49;2.65;;;2.13;;
35444;SDS011;21562;49.476;6.086;2023-04-21T13:11:14;4.70;;;2.83;;
35444;SDS011;21562;49.476;6.086;2023-04-21T13:13:40;5.18;;;2.22;;
35444;SDS011;21562;49.476;6.086;2023-04-21T13:16:06;4.25;;;2.25;;
35444;SDS011;21562;49.476;6.086;2023-04-21T13:18:31;4.70;;;2.30;;
35444;SDS011;21562;49.476;6.086;2023-04-21T13:21:01;4.03;;;2.60;;
35444;SDS011;21562;49.476;6.086;2023-04-21T13:23:27;4.63;;;2.55;;
35444;SDS011;21562;49.476;6.086;2023-04-21T13:25:53;3.50;;;2.25;;
35444;SDS011;21562;49.476;6.086;2023-04-21T13:28:19;5.60;;;2.10;;
35444;SDS011;21562;49.476;6.086;2023-04-21T13:30:46;3.00;;;2.10;;
35444;SDS011;21562;49.476;6.086;2023-04-21T13:33:12;3.55;;;2.38;;
35444;SDS011;21562;49.476;6.086;2023-04-21T13:35:38;4.18;;;2.42;;
35444;SDS011;21562;49.476;6.086;2023-04-21T13:38:04;4.75;;;2.25;;
35444;SDS011;21562;49.476;6.086;2023-04-21T13:40:30;2.58;;;1.92;;
35444;SDS011;21562;49.476;6.086;2023-04-21T13:42:55;3.95;;;1.92;;
35444;SDS011;21562;49.476;6.086;2023-04-21T13:45:23;1.90;;;1.58;;
35444;SDS011;21562;49.476;6.086;2023-04-21T13:47:49;3.38;;;1.73;;
35444;SDS011;21562;49.476;6.086;2023-04-21T13:50:15;3.15;;;2.00;;
35444;SDS011;21562;49.476;6.086;2023-04-21T13:52:41;3.75;;;1.63;;
35444;SDS011;21562;49.476;6.086;2023-04-21T13:55:07;2.05;;;1.20;;
35444;SDS011;21562;49.476;6.086;2023-04-21T13:57:33;1.50;;;1.20;;
35444;SDS011;21562;49.476;6.086;2023-04-21T13:59:59;1.70;;;1.25;;
35444;SDS011;21562;49.476;6.086;2023-04-21T14:02:24;1.40;;;0.98;;
35444;SDS011;21562;49.476;6.086;2023-04-21T14:04:53;2.00;;;1.10;;
35444;SDS011;21562;49.476;6.086;2023-04-21T14:07:18;2.85;;;1.10;;
35444;SDS011;21562;49.476;6.086;2023-04-21T14:09:45;5.00;;;1.70;;
35444;SDS011;21562;49.476;6.086;2023-04-21T14:12:11;3.55;;;1.88;;
35444;SDS011;21562;49.476;6.086;2023-04-21T14:14:37;5.72;;;2.35;;
35444;SDS011;21562;49.476;6.086;2023-04-21T14:17:02;3.80;;;1.58;;
35444;SDS011;21562;49.476;6.086;2023-04-21T14:19:28;2.40;;;1.08;;
35444;SDS011;21562;49.476;6.086;2023-04-21T14:21:57;1.00;;;0.90;;
35444;SDS011;21562;49.476;6.086;2023-04-21T14:24:23;2.25;;;1.65;;
35444;SDS011;21562;49.476;6.086;2023-04-21T14:26:52;2.03;;;1.17;;
35444;SDS011;21562;49.476;6.086;2023-04-21T14:29:18;1.92;;;1.50;;
35444;SDS011;21562;49.476;6.086;2023-04-21T14:31:44;2.17;;;1.20;;
35444;SDS011;21562;49.476;6.086;2023-04-21T14:34:09;2.42;;;1.20;;
35444;SDS011;21562;49.476;6.086;2023-04-21T14:36:35;1.60;;;1.17;;
35444;SDS011;21562;49.476;6.086;2023-04-21T14:39:01;1.92;;;1.20;;
35444;SDS011;21562;49.476;6.086;2023-04-21T14:41:27;2.03;;;1.02;;
35444;SDS011;21562;49.476;6.086;2023-04-21T14:43:53;1.80;;;1.20;;
35444;SDS011;21562;49.476;6.086;2023-04-21T14:46:20;3.75;;;1.33;;
35444;SDS011;21562;49.476;6.086;2023-04-21T14:48:46;1.35;;;1.17;;
35444;SDS011;21562;49.476;6.086;2023-04-21T14:51:11;1.27;;;1.10;;